Ocean King D — V7TV6 — position and weather

sailwx.info

Track history (hours):
 
Tides and Currents Weather Stations Pressure Air Temp Water Temp Dewpoint Dewpoint Depression Visibility Wind Speed Wind Dir Waves Ship Positions

Ocean King D

Last reported at 2016-Jun-25 17:32 UTC. Time now 2016-Jun-27 16:52 UTC.
Position N 34°02' W 007°34'.

Length 190 m; draft 6.2 m.

Type: Cargo ship. MMSI: 538003892.

Date/timePositionNaut miles runAvg speedWind from/ knotsBaromVisibWave heightAir tempDewpointWater temp
2016-Jun-25 17:32N 34°02' W 007°34'1313.8
2016-Jun-25 16:33N 34°15' W 007°29'1313.3
2016-Jun-25 15:33N 34°25' W 007°19'1613.7
2016-Jun-25 14:23N 34°39' W 007°09'1113.4
2016-Jun-25 13:34N 34°49' W 007°02'2713.5
2016-Jun-25 11:34N 35°12' W 006°46'1313.0
2016-Jun-25 10:33N 35°23' W 006°38'6611.0
2016-Jun-25 04:33N 35°59' W 005°30'10 9.7
2016-Jun-25 03:34N 36°02' W 005°19'10 9.7
2016-Jun-25 02:32N 36°04' W 005°06'14411.6
2016-Jun-24 14:06N 36°26' W 002°10'1212.2
2016-Jun-24 13:05N 36°29' W 001°55'611.7
2016-Jun-24 12:33N 36°30' W 001°47'1512.4
2016-Jun-24 11:18N 36°33' W 001°28'911.4
2016-Jun-24 10:33N 36°34' W 001°18'1111.1
2016-Jun-24 09:33N 36°36' W 001°04'1111.0
2016-Jun-24 08:34N 36°38' W 000°51'1211.4
2016-Jun-24 07:32N 36°40' W 000°37'3612.0
2016-Jun-24 04:32N 36°47' E 000°07'1412.8
2016-Jun-24 03:28N 36°50' E 000°24'1413.2
2016-Jun-24 02:25N 36°53' E 000°41'1112.8
2016-Jun-24 01:33N 36°55' E 000°55'1312.6
2016-Jun-24 00:33N 36°58' E 001°10'1212.4
2016-Jun-23 23:33N 36°60' E 001°25'1212.2
2016-Jun-23 22:33N 37°02' E 001°40'1211.9
2016-Jun-23 21:33N 37°04' E 001°55'1212.1
2016-Jun-23 20:33N 37°07' E 002°10'1212.3
2016-Jun-23 19:33N 37°09' E 002°25'1211.9
2016-Jun-23 18:33N 37°12' E 002°40'1111.3
2016-Jun-23 17:33N 37°13' E 002°54'1111.4
2016-Jun-23 16:33N 37°15' E 003°08'1111.5
2016-Jun-23 15:33N 37°17' E 003°22'1211.7
2016-Jun-23 14:33N 37°20' E 003°37'1212.2
2016-Jun-23 13:33N 37°22' E 003°51'1812.0
2016-Jun-23 12:03N 37°24' E 004°14'812.2
2016-Jun-23 11:22N 37°24' E 004°25'1012.2
2016-Jun-23 10:33N 37°25' E 004°37'4312.6
2016-Jun-23 07:12N 37°27' E 005°30'3812.3
2016-Jun-23 04:07N 37°29' E 006°18'711.7
2016-Jun-23 03:33N 37°29' E 006°26'13512.1
2016-Jun-22 16:23N 37°38' E 009°17'18311.6
2016-Jun-22 00:33N 36°52' E 012°59'1512.4
2016-Jun-21 23:23N 36°48' E 013°16'1012.3
2016-Jun-21 22:33N 36°44' E 013°28'1211.6
2016-Jun-21 21:31N 36°40' E 013°42'1211.6
2016-Jun-21 20:32N 36°36' E 013°56'1211.9
2016-Jun-21 19:34N 36°33' E 014°10'1212.2
2016-Jun-21 18:33N 36°29' E 014°24'1312.5
2016-Jun-21 17:33N 36°26' E 014°39'1312.4
2016-Jun-21 16:33N 36°22' E 014°54'28210.9
2016-Jun-20 14:33N 38°48' E 019°59'3 2.1
2016-Jun-20 13:10N 38°50' E 019°55'22 4.6
2016-Jun-20 08:29N 39°06' E 019°38'43512.1
2016-Jun-18 20:33N 44°21' E 012°55'1212.4
2016-Jun-18 19:33N 44°28' E 012°40'1211.7
2016-Jun-18 18:33N 44°30' E 012°24'7 6.5
2016-Jun-18 17:30N 44°28' E 012°15'0 0.0
2016-Jun-18 15:24N 44°28' E 012°15'0 0.0
2016-Jun-17 21:24N 44°28' E 012°15'0 0.0
2016-Jun-16 20:30N 44°28' E 012°15'0 0.0
2016-Jun-16 19:30N 44°28' E 012°15'0 0.0
2016-Jun-16 18:33N 44°28' E 012°15'0 0.0
2016-Jun-16 06:18N 44°28' E 012°15'0 0.0
2016-Jun-15 22:24N 44°28' E 012°15'0 0.0
2016-Jun-15 21:33N 44°28' E 012°15'  
Track history (hours):
 
Tides and Currents Weather Stations Pressure Air Temp Water Temp Dewpoint Dewpoint Depression Visibility Wind Speed Wind Dir Waves Ship Positions

Ocean King D

Last reported at 2016-Jun-25 17:32 UTC. Time now 2016-Jun-27 16:52 UTC.
Position N 34°02' W 007°34'.

Length 190 m; draft 6.2 m.

Type: Cargo ship. MMSI: 538003892.

Date/timePositionNaut miles runAvg speedWind from/ knotsBaromVisibWave heightAir tempDewpointWater temp
2016-Jun-25 17:32N 34°02' W 007°34'1313.8
2016-Jun-25 16:33N 34°15' W 007°29'1313.3
2016-Jun-25 15:33N 34°25' W 007°19'1613.7
2016-Jun-25 14:23N 34°39' W 007°09'1113.4
2016-Jun-25 13:34N 34°49' W 007°02'2713.5
2016-Jun-25 11:34N 35°12' W 006°46'1313.0
2016-Jun-25 10:33N 35°23' W 006°38'6611.0
2016-Jun-25 04:33N 35°59' W 005°30'10 9.7
2016-Jun-25 03:34N 36°02' W 005°19'10 9.7
2016-Jun-25 02:32N 36°04' W 005°06'14411.6
2016-Jun-24 14:06N 36°26' W 002°10'1212.2
2016-Jun-24 13:05N 36°29' W 001°55'611.7
2016-Jun-24 12:33N 36°30' W 001°47'1512.4
2016-Jun-24 11:18N 36°33' W 001°28'911.4
2016-Jun-24 10:33N 36°34' W 001°18'1111.1
2016-Jun-24 09:33N 36°36' W 001°04'1111.0
2016-Jun-24 08:34N 36°38' W 000°51'1211.4
2016-Jun-24 07:32N 36°40' W 000°37'3612.0
2016-Jun-24 04:32N 36°47' E 000°07'1412.8
2016-Jun-24 03:28N 36°50' E 000°24'1413.2
2016-Jun-24 02:25N 36°53' E 000°41'1112.8
2016-Jun-24 01:33N 36°55' E 000°55'1312.6
2016-Jun-24 00:33N 36°58' E 001°10'1212.4
2016-Jun-23 23:33N 36°60' E 001°25'1212.2
2016-Jun-23 22:33N 37°02' E 001°40'1211.9
2016-Jun-23 21:33N 37°04' E 001°55'1212.1
2016-Jun-23 20:33N 37°07' E 002°10'1212.3
2016-Jun-23 19:33N 37°09' E 002°25'1211.9
2016-Jun-23 18:33N 37°12' E 002°40'1111.3
2016-Jun-23 17:33N 37°13' E 002°54'1111.4
2016-Jun-23 16:33N 37°15' E 003°08'1111.5
2016-Jun-23 15:33N 37°17' E 003°22'1211.7
2016-Jun-23 14:33N 37°20' E 003°37'1212.2
2016-Jun-23 13:33N 37°22' E 003°51'1812.0
2016-Jun-23 12:03N 37°24' E 004°14'812.2
2016-Jun-23 11:22N 37°24' E 004°25'1012.2
2016-Jun-23 10:33N 37°25' E 004°37'4312.6
2016-Jun-23 07:12N 37°27' E 005°30'3812.3
2016-Jun-23 04:07N 37°29' E 006°18'711.7
2016-Jun-23 03:33N 37°29' E 006°26'13512.1
2016-Jun-22 16:23N 37°38' E 009°17'18311.6
2016-Jun-22 00:33N 36°52' E 012°59'1512.4
2016-Jun-21 23:23N 36°48' E 013°16'1012.3
2016-Jun-21 22:33N 36°44' E 013°28'1211.6
2016-Jun-21 21:31N 36°40' E 013°42'1211.6
2016-Jun-21 20:32N 36°36' E 013°56'1211.9
2016-Jun-21 19:34N 36°33' E 014°10'1212.2
2016-Jun-21 18:33N 36°29' E 014°24'1312.5
2016-Jun-21 17:33N 36°26' E 014°39'1312.4
2016-Jun-21 16:33N 36°22' E 014°54'28210.9
2016-Jun-20 14:33N 38°48' E 019°59'3 2.1
2016-Jun-20 13:10N 38°50' E 019°55'22 4.6
2016-Jun-20 08:29N 39°06' E 019°38'43512.1
2016-Jun-18 20:33N 44°21' E 012°55'1212.4
2016-Jun-18 19:33N 44°28' E 012°40'1211.7
2016-Jun-18 18:33N 44°30' E 012°24'7 6.5
2016-Jun-18 17:30N 44°28' E 012°15'0 0.0
2016-Jun-18 15:24N 44°28' E 012°15'0 0.0
2016-Jun-17 21:24N 44°28' E 012°15'0 0.0
2016-Jun-16 20:30N 44°28' E 012°15'0 0.0
2016-Jun-16 19:30N 44°28' E 012°15'0 0.0
2016-Jun-16 18:33N 44°28' E 012°15'0 0.0
2016-Jun-16 06:18N 44°28' E 012°15'0 0.0
2016-Jun-15 22:24N 44°28' E 012°15'0 0.0
2016-Jun-15 21:33N 44°28' E 012°15'  

Dump ship's entire track history